Pagrindinis puslapis
METAR-TAF:

METAR-TAF

Oro uostai :

Clayton, Naujoji Meksika, Jungtinės Amerikos Valstijos

platuma: 36-26-54N, ilguma: 103-09-11W, Aukštis: 1513 m

Dabartinis oras

Ataskaita buvo paskelbta 31 minutes, ne 16:55 UTC
Vėjas 10 kt iš Pietų su gūsio iki 19 kt
Temperatūra 16°C
Drėgmė 21%
Slėgis 1020 hPa
Matomumas: 16.1 km
Giedras dangus

METAR: KCAO 311655Z AUTO 19010G19KT 10SM CLR 16/M06 A3011 RMK AO2 SLP168 T01611061

Laikas: 11:26 (17:26 UTC)


TAF: trūkstamas

Orai ataskaitas ir orų prognozės (METAR, TAF).

turimą stotys yra geltonos ir raudonos taškus žemėlapyje.

Perkelti pele per norėdami pamatyti stoties vardą.

Tada spustelėkite, norėdami matyti oro stebėjimo ir prognozės.

Norėdami pakeisti žemėlapį: spustelėkite ant žalios mygtukų su juodo kryžiaus žemyn,; žalią mygtuką su brūkšneliu, jei norite nutolinti; arba žalių rodyklių gretimoms žemėlapius.


METAR-TAF: